Time;durP1;ratioP1;P1;durP2;ratioP2;P2;SDS_P1;SDS_P2;PMS_P1;PMS_P2;Temp;Humidity;BMP_temperature;BMP_pressure;BME280_temperature;BME280_humidity;BME280_pressure;Samples;Min_cycle;Max_cycle;Signal;HPM_P1;HPM_P2
2023/10/24 00:01:52;;;;;;;16.00;10.00;;;;;;;11.30;100.00;100145.34;5049876;28;20079;-79
2023/10/24 00:04:18;;;;;;;16.25;9.75;;;;;;;11.30;100.00;100143.53;5050614;28;20075;-79
2023/10/24 00:06:43;;;;;;;11.73;9.77;;;;;;;11.30;100.00;100143.53;5032912;28;20158;-79
2023/10/24 00:09:08;;;;;;;20.38;10.15;;;;;;;11.30;100.00;100147.97;5049916;28;20029;-79
2023/10/24 00:11:37;;;;;;;14.15;9.48;;;;;;;11.30;100.00;100145.34;5033933;28;20028;-79
2023/10/24 00:14:02;;;;;;;13.10;9.43;;;;;;;11.29;100.00;100136.63;5051560;28;20036;-79
2023/10/24 00:16:28;;;;;;;12.85;9.43;;;;;;;11.29;100.00;100139.25;5050636;28;20441;-79
2023/10/24 00:18:53;;;;;;;13.63;9.23;;;;;;;11.29;100.00;100130.50;5048358;28;20213;-78
2023/10/24 00:21:18;;;;;;;16.02;8.90;;;;;;;11.30;100.00;100140.91;5051381;28;20378;-79
2023/10/24 00:23:44;;;;;;;10.15;8.52;;;;;;;11.32;100.00;100129.41;5033062;28;20021;-78
2023/10/24 00:26:09;;;;;;;11.40;9.63;;;;;;;11.30;100.00;100134.81;5032194;28;20098;-79
2023/10/24 00:28:35;;;;;;;10.65;8.88;;;;;;;11.30;100.00;100140.06;5050885;28;20055;-78
2023/10/24 00:31:01;;;;;;;10.77;8.73;;;;;;;11.29;100.00;100130.50;5051140;28;20028;-79
2023/10/24 00:33:26;;;;;;;10.27;8.70;;;;;;;11.29;100.00;100136.63;5049918;28;20109;-79
2023/10/24 00:35:51;;;;;;;12.65;8.75;;;;;;;11.30;100.00;100133.00;5049586;28;20025;-79
2023/10/24 00:38:17;;;;;;;12.57;9.13;;;;;;;11.27;100.00;100135.09;5030823;28;20108;-79
2023/10/24 00:40:42;;;;;;;11.52;8.48;;;;;;;11.28;100.00;100140.22;5046900;28;20052;-79
2023/10/24 00:43:07;;;;;;;11.35;8.88;;;;;;;11.27;100.00;100129.81;5050183;28;20028;-79
2023/10/24 00:45:35;;;;;;;10.27;8.85;;;;;;;11.24;100.00;100138.81;5032454;28;20111;-79
2023/10/24 00:48:02;;;;;;;10.93;7.97;;;;;;;11.25;100.00;100152.81;5050411;28;20035;-79
2023/10/24 00:50:28;;;;;;;16.10;8.60;;;;;;;11.23;100.00;100147.69;5049454;28;20552;-79
2023/10/24 00:52:54;;;;;;;11.27;7.97;;;;;;;11.22;100.00;100151.28;5050248;28;20451;-79
2023/10/24 00:55:20;;;;;;;10.23;7.93;;;;;;;11.22;100.00;100150.47;5047216;28;20021;-79
2023/10/24 00:57:47;;;;;;;9.23;7.25;;;;;;;11.21;100.00;100149.63;5031306;28;20034;-79
2023/10/24 01:00:13;;;;;;;8.38;7.43;;;;;;;11.20;100.00;100153.19;5049091;28;20394;-79
2023/10/24 01:02:38;;;;;;;11.70;7.50;;;;;;;11.21;100.00;100144.34;5046799;28;20049;-78
2023/10/24 01:05:04;;;;;;;9.40;6.88;;;;;;;11.18;100.00;100147.22;5031787;28;20479;-78
2023/10/24 01:07:30;;;;;;;10.90;6.68;;;;;;;11.19;100.00;100135.72;5049331;28;20474;-78
2023/10/24 01:09:56;;;;;;;9.25;6.00;;;;;;;11.18;100.00;100139.34;5048753;28;20074;-78
2023/10/24 01:12:21;;;;;;;7.88;5.68;;;;;;;11.17;100.00;100136.84;5038860;28;20391;-81
2023/10/24 01:14:46;;;;;;;6.13;5.28;;;;;;;11.16;100.00;100136.00;5048470;28;20051;-78
2023/10/24 01:17:13;;;;;;;6.72;4.65;;;;;;;11.14;100.00;100137.09;5049565;28;20017;-79
2023/10/24 01:19:38;;;;;;;6.82;4.32;;;;;;;11.13;100.00;100136.28;5031535;28;20112;-78
2023/10/24 01:22:04;;;;;;;6.10;4.57;;;;;;;11.15;100.00;100144.03;5045502;28;20686;-78
2023/10/24 01:24:29;;;;;;;5.57;4.18;;;;;;;11.12;100.00;100145.16;5049875;28;20032;-78
2023/10/24 01:26:56;;;;;;;7.85;4.60;;;;;;;11.12;100.00;100134.59;5047774;28;20025;-79
2023/10/24 01:29:22;;;;;;;6.03;4.20;;;;;;;11.09;100.00;100140.16;5048110;28;20123;-79
2023/10/24 01:31:47;;;;;;;7.32;4.63;;;;;;;11.12;100.00;100139.03;5035545;28;20088;-79
2023/10/24 01:34:12;;;;;;;7.20;4.85;;;;;;;11.10;100.00;100140.97;5041663;28;20025;-79
2023/10/24 01:36:38;;;;;;;6.10;4.38;;;;;;;11.10;100.00;100144.44;5033790;28;20025;-79
2023/10/24 01:39:03;;;;;;;7.28;4.28;;;;;;;11.08;100.00;100146.38;5032090;28;20020;-79
2023/10/24 01:41:29;;;;;;;7.05;4.40;;;;;;;11.09;100.00;100145.41;5031583;28;20024;-79
2023/10/24 01:43:55;;;;;;;6.85;4.63;;;;;;;11.07;100.00;100147.34;5031049;28;20511;-79
2023/10/24 01:46:21;;;;;;;5.55;4.97;;;;;;;11.06;100.00;100145.69;5048359;28;20029;-79
2023/10/24 01:48:49;;;;;;;6.95;5.13;;;;;;;11.05;100.00;100144.00;5046176;28;20021;-79
2023/10/24 01:51:14;;;;;;;5.30;4.82;;;;;;;11.05;100.00;100128.22;5046941;28;20104;-79
2023/10/24 01:53:40;;;;;;;6.15;4.57;;;;;;;11.05;100.00;100132.66;5046291;28;20108;-79
2023/10/24 01:56:05;;;;;;;5.82;4.55;;;;;;;11.05;100.00;100135.28;5049924;28;20264;-79
2023/10/24 01:58:30;;;;;;;6.70;4.95;;;;;;;11.02;100.00;100138.19;5048363;28;20041;-79
2023/10/24 02:00:56;;;;;;;6.53;4.70;;;;;;;11.00;100.00;100135.69;5047554;28;20037;-79
2023/10/24 02:03:21;;;;;;;6.50;5.10;;;;;;;11.02;100.00;100132.91;5047206;28;20078;-79
2023/10/24 02:05:47;;;;;;;5.78;4.85;;;;;;;11.02;100.00;100143.44;5048972;28;20049;-80
2023/10/24 02:08:12;;;;;;;7.10;4.80;;;;;;;11.02;100.00;100135.56;5047548;28;20049;-79
2023/10/24 02:10:38;;;;;;;5.55;4.60;;;;;;;11.00;100.00;100135.69;5047865;28;20486;-78
2023/10/24 02:13:03;;;;;;;5.80;4.63;;;;;;;10.99;100.00;100144.56;5049228;28;20678;-78
2023/10/24 02:15:28;;;;;;;6.55;5.03;;;;;;;10.97;100.00;100139.44;5064841;28;20415;-78
2023/10/24 02:17:54;;;;;;;5.25;4.63;;;;;;;10.95;100.00;100144.00;5046714;28;20059;-79
2023/10/24 02:20:19;;;;;;;5.25;4.43;;;;;;;10.93;100.00;100150.34;5036840;28;20482;-79
2023/10/24 02:22:49;;;;;;;5.15;4.50;;;;;;;10.92;100.00;100148.69;5047688;28;20032;-79
2023/10/24 02:25:14;;;;;;;5.20;4.70;;;;;;;10.92;100.00;100143.44;5046890;28;20118;-78
2023/10/24 02:27:40;;;;;;;4.63;4.13;;;;;;;10.90;100.00;100132.19;5045661;28;20033;-78
2023/10/24 02:30:06;;;;;;;4.95;4.28;;;;;;;10.87;100.00;100133.31;5035318;28;20017;-78
2023/10/24 02:32:31;;;;;;;5.93;4.28;;;;;;;10.86;100.00;100138.69;5034762;28;20033;-79
2023/10/24 02:34:57;;;;;;;5.35;4.47;;;;;;;10.84;100.00;100141.47;5052435;28;20486;-79
2023/10/24 02:37:22;;;;;;;5.40;4.28;;;;;;;10.81;100.00;100146.16;5053125;28;20356;-79
2023/10/24 02:39:47;;;;;;;4.53;4.07;;;;;;;10.78;100.00;100141.97;5051412;28;20167;-79
2023/10/24 02:42:13;;;;;;;6.03;4.18;;;;;;;10.77;100.00;100156.09;5053699;28;20025;-79
2023/10/24 02:44:38;;;;;;;5.13;4.40;;;;;;;10.76;100.00;100150.97;5034926;28;20028;-78
2023/10/24 02:47:03;;;;;;;4.93;4.43;;;;;;;10.74;100.00;100156.34;5033704;28;20478;-77
2023/10/24 02:49:31;;;;;;;4.95;4.32;;;;;;;10.75;100.00;100159.81;5051447;28;20481;-78
2023/10/24 02:51:57;;;;;;;5.15;4.68;;;;;;;10.73;100.00;100162.56;5051423;28;20090;-78
2023/10/24 02:54:23;;;;;;;4.97;4.50;;;;;;;10.73;100.00;100153.84;5051845;28;20471;-79
2023/10/24 02:56:49;;;;;;;4.88;4.38;;;;;;;10.71;100.00;100161.03;5032725;28;20028;-78
2023/10/24 02:59:14;;;;;;;5.88;5.00;;;;;;;10.71;100.00;100166.31;5038631;28;20385;-78
2023/10/24 03:01:39;;;;;;;5.68;4.78;;;;;;;10.70;100.00;100175.16;5043892;28;20094;-78
2023/10/24 03:04:05;;;;;;;5.68;4.57;;;;;;;10.66;100.00;100164.91;5052251;28;20033;-79
2023/10/24 03:06:30;;;;;;;5.88;5.28;;;;;;;10.68;100.00;100170.03;5051395;28;20036;-79
2023/10/24 03:08:55;;;;;;;5.53;4.97;;;;;;;10.67;100.00;100171.00;5033408;28;20021;-79
2023/10/24 03:11:22;;;;;;;5.55;5.05;;;;;;;10.67;100.00;100171.84;5051037;28;20028;-79
2023/10/24 03:13:48;;;;;;;5.65;5.15;;;;;;;10.64;100.00;100176.53;5049383;28;20579;-78
2023/10/24 03:16:14;;;;;;;5.30;4.90;;;;;;;10.64;100.00;100174.72;5051134;28;20116;-78
2023/10/24 03:18:39;;;;;;;5.50;5.00;;;;;;;10.63;100.00;100173.06;5050637;28;20099;-78
2023/10/24 03:21:05;;;;;;;5.53;5.03;;;;;;;10.62;100.00;100174.03;5050264;28;20037;-79
2023/10/24 03:23:30;;;;;;;5.13;4.72;;;;;;;10.62;100.00;100179.28;5034112;28;20063;-79
2023/10/24 03:25:55;;;;;;;5.50;5.00;;;;;;;10.61;100.00;100177.63;5050811;28;20091;-79
2023/10/24 03:28:36;;;;;;;5.50;5.00;;;;;;;10.60;100.00;100175.94;5017386;28;20722;-79
2023/10/24 03:31:06;;;;;;;5.68;4.82;;;;;;;10.60;100.00;100175.94;5049004;28;20078;-79
2023/10/24 03:33:32;;;;;;;5.55;4.88;;;;;;;10.58;100.00;100172.63;5051344;28;20040;-78
2023/10/24 03:35:58;;;;;;;5.32;4.90;;;;;;;10.59;100.00;100178.72;5050452;28;20082;-78
2023/10/24 03:38:25;;;;;;;5.75;4.90;;;;;;;10.58;100.00;100177.06;5049768;28;20017;-79
2023/10/24 03:40:51;;;;;;;6.22;5.63;;;;;;;10.59;100.00;100176.09;5050434;28;20423;-79
2023/10/24 03:43:16;;;;;;;5.68;5.03;;;;;;;10.59;100.00;100174.28;5033582;28;20024;-78
2023/10/24 03:45:42;;;;;;;6.85;5.28;;;;;;;10.57;100.00;100168.31;5050945;28;20051;-78
2023/10/24 03:48:07;;;;;;;6.63;5.50;;;;;;;10.56;100.00;100174.56;5051215;28;20028;-78
2023/10/24 03:50:37;;;;;;;5.45;5.00;;;;;;;10.55;100.00;100178.16;5033499;28;20037;-78
2023/10/24 03:53:03;;;;;;;5.65;5.15;;;;;;;10.56;100.00;100179.81;5050528;28;20432;-79
2023/10/24 03:55:29;;;;;;;5.68;5.18;;;;;;;10.56;100.00;100179.81;5033551;28;20471;-79
2023/10/24 03:57:54;;;;;;;6.10;5.50;;;;;;;10.57;100.00;100185.91;5046679;28;20040;-79
2023/10/24 04:00:21;;;;;;;6.00;5.50;;;;;;;10.54;100.00;100192.25;5048189;28;20041;-78
2023/10/24 04:02:50;;;;;;;5.65;5.25;;;;;;;10.54;100.00;100192.25;5049490;28;20662;-79
2023/10/24 04:05:15;;;;;;;6.07;5.00;;;;;;;10.55;100.00;100183.41;5049710;28;20574;-79
2023/10/24 04:07:41;;;;;;;5.30;4.90;;;;;;;10.54;100.00;100175.66;5057918;28;20166;-78
2023/10/24 04:10:07;;;;;;;5.68;5.10;;;;;;;10.54;100.00;100186.16;5042020;28;20033;-79
2023/10/24 04:12:33;;;;;;;5.68;5.18;;;;;;;10.52;100.00;100177.56;5038192;28;20041;-79
2023/10/24 04:14:58;;;;;;;5.70;5.20;;;;;;;10.50;100.00;100185.59;5049647;28;20029;-79
2023/10/24 04:17:23;;;;;;;8.90;5.57;;;;;;;10.50;100.00;100180.34;5028558;28;20478;-79
2023/10/24 04:19:49;;;;;;;6.13;5.63;;;;;;;10.50;100.00;100179.50;5048163;28;20086;-79
2023/10/24 04:22:14;;;;;;;7.03;5.60;;;;;;;10.50;100.00;100172.44;5051720;28;20502;-79
2023/10/24 04:24:39;;;;;;;6.00;5.50;;;;;;;10.48;100.00;100161.22;5050074;28;20021;-78
2023/10/24 04:27:07;;;;;;;6.30;5.70;;;;;;;10.49;100.00;100156.78;5052832;28;20115;-79
2023/10/24 04:29:32;;;;;;;6.75;5.25;;;;;;;10.47;100.00;100154.28;5055747;28;20029;-79
2023/10/24 04:31:58;;;;;;;6.03;5.45;;;;;;;10.47;100.00;100148.19;5029363;28;20398;-78
2023/10/24 04:34:23;;;;;;;5.85;5.32;;;;;;;10.45;100.00;100143.06;5046353;28;20040;-79
2023/10/24 04:36:49;;;;;;;5.80;5.30;;;;;;;10.47;100.00;100142.94;5031350;28;20075;-78
2023/10/24 04:39:15;;;;;;;5.57;5.07;;;;;;;10.47;100.00;100143.78;5032325;28;20017;-79
2023/10/24 04:41:40;;;;;;;5.57;5.07;;;;;;;10.46;100.00;100141.28;5049218;28;20021;-78
2023/10/24 04:44:05;;;;;;;5.45;4.95;;;;;;;10.46;100.00;100136.84;5049008;28;20550;-78
2023/10/24 04:46:31;;;;;;;6.53;5.93;;;;;;;10.45;100.00;100143.06;5049114;28;20104;-79
2023/10/24 04:48:56;;;;;;;6.30;5.70;;;;;;;10.45;100.00;100150.13;5049076;28;20064;-78
2023/10/24 04:51:22;;;;;;;6.28;5.78;;;;;;;10.44;100.00;100154.56;5049670;28;20499;-78
2023/10/24 04:53:47;;;;;;;5.95;5.45;;;;;;;10.43;100.00;100149.44;5026444;28;20036;-78
2023/10/24 04:56:12;;;;;;;6.95;6.18;;;;;;;10.43;100.00;100147.63;5049328;28;20016;-79
2023/10/24 04:58:38;;;;;;;6.85;6.00;;;;;;;10.43;100.00;100152.88;5045973;28;20107;-79
2023/10/24 05:01:03;;;;;;;6.80;6.07;;;;;;;10.43;100.00;100150.25;5048273;28;20465;-78
2023/10/24 05:03:29;;;;;;;6.57;6.07;;;;;;;10.42;100.00;100156.47;5048843;28;20067;-78
2023/10/24 05:05:55;;;;;;;6.32;5.72;;;;;;;10.42;100.00;100150.38;5049002;28;20032;-78
2023/10/24 05:08:20;;;;;;;6.28;5.78;;;;;;;10.40;100.00;100161.00;5035274;28;20078;-79
2023/10/24 05:10:49;;;;;;;7.03;5.88;;;;;;;10.40;100.00;100163.63;5036320;28;20028;-78
2023/10/24 05:13:15;;;;;;;5.75;5.25;;;;;;;10.40;100.00;100152.28;5041024;28;20074;-78
2023/10/24 05:15:40;;;;;;;6.13;5.63;;;;;;;10.38;100.00;100160.31;5026326;28;20028;-78
2023/10/24 05:18:09;;;;;;;6.20;5.70;;;;;;;10.38;100.00;100160.31;5040004;28;20386;-78
2023/10/24 05:20:38;;;;;;;7.88;5.32;;;;;;;10.38;100.00;100160.31;5049688;28;20083;-79
2023/10/24 05:23:04;;;;;;;5.93;5.07;;;;;;;10.38;100.00;100160.31;5049023;28;20016;-79
2023/10/24 05:25:29;;;;;;;5.85;5.35;;;;;;;10.37;100.00;100158.63;5050192;28;20063;-79
2023/10/24 05:27:55;;;;;;;5.28;4.43;;;;;;;10.38;100.00;100152.41;5048926;28;20036;-79
2023/10/24 05:30:21;;;;;;;4.47;4.07;;;;;;;10.38;100.00;100159.47;5048859;28;20020;-79
2023/10/24 05:32:47;;;;;;;6.78;4.72;;;;;;;10.36;100.00;100146.44;5043048;28;20504;-79
2023/10/24 05:35:12;;;;;;;5.20;4.13;;;;;;;10.36;100.00;100134.13;5029279;28;20028;-79
2023/10/24 05:37:37;;;;;;;5.13;4.72;;;;;;;10.38;100.00;100128.75;5032020;28;20497;-79
2023/10/24 05:40:04;;;;;;;4.93;4.13;;;;;;;10.38;100.00;100127.91;5032207;28;20017;-79
2023/10/24 05:42:30;;;;;;;4.93;4.50;;;;;;;10.37;100.00;100129.72;5048912;28;20074;-79
2023/10/24 05:44:55;;;;;;;5.05;4.65;;;;;;;10.38;100.00;100138.44;5031502;28;20032;-79
2023/10/24 05:47:20;;;;;;;5.18;4.57;;;;;;;10.35;100.00;100136.91;5035319;28;20021;-79
2023/10/24 05:49:46;;;;;;;5.28;4.78;;;;;;;10.35;100.00;100140.34;5048713;28;20060;-79
2023/10/24 05:52:11;;;;;;;4.97;4.50;;;;;;;10.36;100.00;100157.81;5049131;28;20025;-79
2023/10/24 05:54:36;;;;;;;5.05;4.63;;;;;;;10.34;100.00;100151.00;5046938;28;20056;-79
2023/10/24 05:57:02;;;;;;;5.63;4.90;;;;;;;10.32;100.00;100153.75;5039045;28;20045;-79
2023/10/24 05:59:28;;;;;;;8.88;5.53;;;;;;;10.31;100.00;100149.47;5047522;28;20461;-80
2023/10/24 06:01:53;;;;;;;5.15;4.75;;;;;;;10.31;100.00;100154.72;5029961;28;20148;-79
2023/10/24 06:04:19;;;;;;;4.85;4.45;;;;;;;10.29;100.00;100161.91;5041377;28;20043;-79
2023/10/24 06:06:44;;;;;;;5.53;5.00;;;;;;;10.26;100.00;100166.59;5047509;28;20092;-79
2023/10/24 06:09:13;;;;;;;5.05;4.65;;;;;;;10.26;100.00;100169.22;5048377;28;20025;-79
2023/10/24 06:11:38;;;;;;;5.00;4.47;;;;;;;10.24;100.00;100158.84;5029549;28;20025;-79
2023/10/24 06:14:04;;;;;;;5.65;4.53;;;;;;;10.26;100.00;100162.16;5037437;28;20107;-79
2023/10/24 06:16:32;;;;;;;4.72;4.22;;;;;;;10.25;100.00;100155.25;5069307;28;20063;-79
2023/10/24 06:18:58;;;;;;;4.72;4.32;;;;;;;10.26;100.00;100140.31;5047062;28;20029;-79
2023/10/24 06:21:23;;;;;;;5.78;4.30;;;;;;;10.27;100.00;100141.97;5011736;28;20032;-80
2023/10/24 06:23:48;;;;;;;4.45;4.05;;;;;;;10.28;100.00;100143.63;5010372;28;20025;-79
2023/10/24 06:26:15;;;;;;;4.40;4.00;;;;;;;10.27;100.00;100145.44;5041267;28;20029;-79
2023/10/24 06:28:41;;;;;;;4.50;4.10;;;;;;;10.28;100.00;100149.72;5035457;28;20514;-79
2023/10/24 06:31:07;;;;;;;4.38;3.97;;;;;;;10.29;100.00;100145.31;5048193;28;20033;-79
2023/10/24 06:33:32;;;;;;;6.45;4.20;;;;;;;10.29;100.00;100153.19;5049255;28;20496;-79
2023/10/24 06:35:59;;;;;;;4.25;3.90;;;;;;;10.29;100.00;100161.09;5048530;28;20028;-80
2023/10/24 06:38:25;;;;;;;4.30;3.90;;;;;;;10.28;100.00;100165.50;5030589;28;20025;-79
2023/10/24 06:40:50;;;;;;;5.32;4.35;;;;;;;10.30;100.00;100178.53;5046153;28;20028;-80
2023/10/24 06:43:17;;;;;;;5.13;4.55;;;;;;;10.32;100.00;100192.38;5047436;28;20029;-78
2023/10/24 06:45:43;;;;;;;5.70;5.18;;;;;;;10.30;100.00;100194.31;5044540;28;20025;-79
2023/10/24 06:48:09;;;;;;;5.93;5.40;;;;;;;10.32;100.00;100187.13;5048208;28;20059;-79
2023/10/24 06:50:35;;;;;;;5.50;5.00;;;;;;;10.33;100.00;100186.16;5030587;28;20021;-79
2023/10/24 06:53:00;;;;;;;5.95;5.30;;;;;;;10.33;100.00;100168.59;5028864;28;20029;-79
2023/10/24 06:55:26;;;;;;;7.20;5.60;;;;;;;10.35;100.00;100165.81;5026627;28;20078;-79
2023/10/24 06:57:51;;;;;;;6.55;5.78;;;;;;;10.36;100.00;100163.06;5024780;28;20112;-79
2023/10/24 07:00:17;;;;;;;6.20;5.60;;;;;;;10.37;100.00;100158.63;5029208;28;20390;-80
2023/10/24 07:02:43;;;;;;;6.60;5.95;;;;;;;10.39;100.00;100159.34;5046965;28;20507;-80
2023/10/24 07:05:08;;;;;;;6.95;5.85;;;;;;;10.41;100.00;100164.50;5046149;28;20066;-80
2023/10/24 07:07:35;;;;;;;6.03;5.43;;;;;;;10.41;100.00;100157.44;5046881;28;20054;-80
2023/10/24 07:10:01;;;;;;;7.40;5.63;;;;;;;10.42;100.00;100159.13;5048148;28;20029;-80
2023/10/24 07:12:26;;;;;;;7.53;5.10;;;;;;;10.42;100.00;100151.22;5056628;28;20029;-80
2023/10/24 07:14:53;;;;;;;7.07;6.05;;;;;;;10.43;100.00;100158.16;5068302;28;20024;-80
2023/10/24 07:17:18;;;;;;;9.75;6.40;;;;;;;10.44;100.00;100159.81;5055215;28;20483;-79
2023/10/24 07:19:44;;;;;;;6.60;5.97;;;;;;;10.47;100.00;100151.66;5052335;28;20037;-80
2023/10/24 07:22:09;;;;;;;9.20;6.60;;;;;;;10.49;100.00;100155.00;5030594;28;20114;-80
2023/10/24 07:24:35;;;;;;;8.88;6.78;;;;;;;10.50;100.00;100159.28;5032028;28;20085;-81
2023/10/24 07:27:00;;;;;;;7.95;6.28;;;;;;;10.53;100.00;100159.03;5031851;28;20501;-81
2023/10/24 07:29:28;;;;;;;7.78;6.72;;;;;;;10.55;100.00;100157.09;5033771;28;20051;-81
2023/10/24 07:31:53;;;;;;;7.70;6.60;;;;;;;10.57;100.00;100170.94;5051461;28;20028;-81
2023/10/24 07:34:19;;;;;;;7.20;6.25;;;;;;;10.62;100.00;100171.41;5051643;28;20032;-79
2023/10/24 07:36:44;;;;;;;7.63;6.85;;;;;;;10.63;100.00;100169.59;5051852;28;20025;-78
2023/10/24 07:39:09;;;;;;;8.80;7.07;;;;;;;10.65;100.00;100160.59;5052152;28;20131;-78
2023/10/24 07:41:35;;;;;;;7.82;6.50;;;;;;;10.71;100.00;100155.78;5051266;28;20059;-78
2023/10/24 07:44:00;;;;;;;7.80;7.00;;;;;;;10.74;100.00;100158.16;5050724;28;20029;-78
2023/10/24 07:46:26;;;;;;;7.35;6.65;;;;;;;10.78;100.00;100162.19;5052254;28;20155;-78
2023/10/24 07:48:52;;;;;;;8.05;6.45;;;;;;;10.80;100.00;100160.25;5051057;28;20025;-78
2023/10/24 07:51:18;;;;;;;7.45;6.68;;;;;;;10.81;100.00;100156.69;5051622;28;20034;-78
2023/10/24 07:53:44;;;;;;;11.48;7.18;;;;;;;10.81;100.00;100151.44;5049130;28;20025;-80
2023/10/24 07:56:09;;;;;;;7.68;6.88;;;;;;;10.82;100.00;100148.66;5048555;28;20036;-80
2023/10/24 07:58:38;;;;;;;9.23;7.03;;;;;;;10.86;100.00;100143.97;5037293;28;20390;-79
2023/10/24 08:01:04;;;;;;;8.60;6.35;;;;;;;10.89;100.00;100141.06;5047977;28;20041;-80
2023/10/24 08:03:29;;;;;;;8.32;7.00;;;;;;;10.90;100.00;100145.34;5028869;28;20033;-80
2023/10/24 08:05:55;;;;;;;8.98;7.05;;;;;;;10.88;100.00;100142.03;5045567;28;20032;-81
2023/10/24 08:08:20;;;;;;;8.38;6.80;;;;;;;10.94;100.00;100141.50;5032468;28;20040;-80
2023/10/24 08:10:45;;;;;;;8.77;7.20;;;;;;;10.99;100.00;100148.03;5034640;28;20143;-80
2023/10/24 08:13:11;;;;;;;8.48;6.95;;;;;;;11.08;100.00;100146.38;5063509;28;20026;-80
2023/10/24 08:15:36;;;;;;;8.80;6.95;;;;;;;11.16;100.00;100146.53;5053028;28;20123;-81
2023/10/24 08:18:01;;;;;;;8.77;6.70;;;;;;;11.34;100.00;100148.53;5033065;28;20112;-79
2023/10/24 08:20:27;;;;;;;9.77;6.70;;;;;;;11.42;100.00;100152.16;5025733;28;20032;-80
2023/10/24 08:22:53;;;;;;;11.00;6.25;;;;;;;11.51;100.00;100139.97;5013131;28;20036;-80
2023/10/24 08:25:18;;;;;;;8.43;6.07;;;;;;;11.63;100.00;100148.59;5046359;28;20108;-80
2023/10/24 08:27:44;;;;;;;7.10;5.82;;;;;;;11.69;100.00;100148.03;5050047;28;20036;-80
2023/10/24 08:30:10;;;;;;;6.88;5.28;;;;;;;11.73;100.00;100150.25;5039707;28;20029;-80
2023/10/24 08:32:36;;;;;;;7.30;5.57;;;;;;;11.78;100.00;100153.34;5050006;28;20391;-79
2023/10/24 08:35:01;;;;;;;7.55;4.75;;;;;;;11.81;100.00;100163.59;5051034;28;20027;-80
2023/10/24 08:37:27;;;;;;;7.05;5.07;;;;;;;11.80;100.00;100177.75;5031019;28;20021;-80
2023/10/24 08:39:53;;;;;;;8.93;5.25;;;;;;;11.81;100.00;100174.16;5032537;28;20048;-80
2023/10/24 08:42:19;;;;;;;5.68;5.15;;;;;;;11.85;100.00;100185.25;5049796;28;20113;-80
2023/10/24 08:44:45;;;;;;;7.65;4.80;;;;;;;11.87;100.00;100176.22;5049183;28;20033;-80
2023/10/24 08:47:11;;;;;;;9.02;5.25;;;;;;;11.97;100.00;100178.84;5049110;28;20029;-80
2023/10/24 08:49:37;;;;;;;7.68;5.20;;;;;;;11.97;100.00;100178.03;5048066;28;20224;-80
2023/10/24 08:52:06;;;;;;;7.50;5.00;;;;;;;11.92;100.00;100176.63;5048398;28;20055;-80
2023/10/24 08:54:32;;;;;;;7.07;5.20;;;;;;;11.89;100.00;100170.81;5048788;28;20040;-80
2023/10/24 08:57:01;;;;;;;5.50;4.57;;;;;;;11.86;100.00;100177.19;5049027;28;20028;-80
2023/10/24 08:59:31;;;;;;;6.47;4.40;;;;;;;11.85;100.00;100165.00;5048333;28;20027;-80
2023/10/24 09:01:56;;;;;;;5.85;4.60;;;;;;;11.81;100.00;100163.59;5046622;28;20136;-80
2023/10/24 09:04:22;;;;;;;6.75;4.72;;;;;;;11.81;100.00;100166.25;5033525;28;20427;-80
2023/10/24 09:06:47;;;;;;;5.10;4.60;;;;;;;11.83;100.00;100163.47;5037664;28;20574;-80
2023/10/24 09:09:14;;;;;;;6.15;5.38;;;;;;;11.82;100.00;100161.81;5047101;28;20029;-80
2023/10/24 09:12:03;;;;;;;8.23;5.78;;;;;;;11.87;100.00;100168.31;5046669;28;20033;-80
2023/10/24 09:14:29;;;;;;;8.20;6.68;;;;;;;11.84;100.00;100160.69;5022379;28;20435;-79
2023/10/24 09:17:01;;;;;;;7.43;6.20;;;;;;;11.88;100.00;100159.44;5033675;28;20351;-80
2023/10/24 09:19:27;;;;;;;9.67;7.07;;;;;;;11.95;100.00;100156.25;5030902;28;20397;-80
2023/10/24 09:21:53;;;;;;;9.50;8.10;;;;;;;11.98;100.00;100148.06;5030578;28;20279;-80
2023/10/24 09:24:19;;;;;;;9.93;8.80;;;;;;;12.03;100.00;100151.13;5048624;28;20021;-80
2023/10/24 09:26:55;;;;;;;11.70;8.75;;;;;;;12.09;100.00;100151.41;5046941;28;20024;-79
2023/10/24 09:29:24;;;;;;;11.32;8.70;;;;;;;12.13;100.00;100131.69;5046583;28;20032;-79
2023/10/24 09:31:50;;;;;;;9.02;8.18;;;;;;;12.23;100.00;100131.66;5048258;28;20043;-80
2023/10/24 09:34:17;;;;;;;8.20;7.38;;;;;;;12.37;100.00;100141.75;5034483;28;20035;-80
2023/10/24 09:36:43;;;;;;;8.13;6.53;;;;;;;12.42;100.00;100139.56;5047523;28;20016;-80
2023/10/24 09:39:10;;;;;;;6.68;5.38;;;;;;;12.52;100.00;100153.53;5029068;28;20471;-80
2023/10/24 09:41:35;;;;;;;8.85;5.75;;;;;;;12.58;100.00;100153.94;5046638;28;20067;-80
2023/10/24 09:44:02;;;;;;;7.22;5.30;;;;;;;12.59;100.00;100152.97;5041774;28;20025;-80
2023/10/24 09:46:28;;;;;;;6.68;4.95;;;;;;;12.58;100.00;100156.59;5030902;28;20518;-81
2023/10/24 09:48:59;;;;;;;6.20;4.88;;;;;;;12.63;100.00;100141.16;5047167;28;20512;-81
2023/10/24 09:51:24;;;;;;;5.72;4.78;;;;;;;12.62;100.00;100134.22;5046193;28;20028;-81
2023/10/24 09:53:50;;;;;;;8.38;5.10;;;;;;;12.63;100.00;100123.50;5048096;28;20029;-81
2023/10/24 09:56:17;;;;;;;12.23;4.78;;;;;;;12.62;100.00;100137.69;5050040;28;20021;-80
2023/10/24 09:58:43;;;;;;;6.50;4.80;;;;;;;12.55;100.00;100131.31;5027111;28;20017;-80
2023/10/24 10:01:12;;;;;;;6.55;4.63;;;;;;;12.51;100.00;100135.22;5045062;28;20391;-80
2023/10/24 10:03:38;;;;;;;5.47;4.78;;;;;;;12.48;100.00;100125.78;5047649;28;20089;-81
2023/10/24 10:06:06;;;;;;;5.70;4.85;;;;;;;12.49;100.00;100124.81;5048831;28;20045;-81
2023/10/24 10:08:41;;;;;;;9.55;4.70;;;;;;;12.50;100.00;100144.09;5047216;28;20033;-81
2023/10/24 10:11:07;;;;;;;6.72;4.78;;;;;;;12.47;100.00;100139.94;5048759;28;20059;-80
2023/10/24 10:13:50;;;;;;;6.60;4.70;;;;;;;12.46;100.00;100140.94;5049239;28;20060;-81
2023/10/24 10:16:37;;;;;;;8.32;4.82;;;;;;;12.48;100.00;100141.63;5038259;28;20025;-81
2023/10/24 10:19:18;;;;;;;6.80;5.03;;;;;;;12.45;100.00;100147.19;5048001;28;20033;-80
2023/10/24 10:22:18;;;;;;;6.20;4.90;;;;;;;12.44;100.00;100155.25;5048741;28;20094;-80
2023/10/24 10:25:19;;;;;;;5.65;4.85;;;;;;;12.37;100.00;100160.22;5029567;28;20021;-81
2023/10/24 10:27:54;;;;;;;6.05;5.30;;;;;;;12.31;100.00;100152.88;5045171;28;20029;-81
2023/10/24 10:30:37;;;;;;;7.00;5.20;;;;;;;12.26;100.00;100162.19;5048511;28;20032;-81
2023/10/24 10:33:15;;;;;;;5.88;5.10;;;;;;;12.24;100.00;100144.72;5034507;28;20029;-81
2023/10/24 10:35:49;;;;;;;7.47;5.13;;;;;;;12.20;100.00;100145.13;5048563;28;20021;-81
2023/10/24 10:38:47;;;;;;;7.03;5.10;;;;;;;12.18;100.00;100144.44;5045266;28;20028;-81
2023/10/24 10:41:21;;;;;;;9.05;5.25;;;;;;;12.15;100.00;100142.09;5049037;28;20074;-81
2023/10/24 10:43:59;;;;;;;7.07;5.50;;;;;;;12.10;100.00;100146.97;5047771;28;20036;-81
2023/10/24 10:46:32;;;;;;;6.05;5.40;;;;;;;12.05;100.00;100138.63;5047686;28;20028;-81
2023/10/24 10:48:59;;;;;;;6.60;5.65;;;;;;;12.02;100.00;100138.91;5048633;28;20063;-80
2023/10/24 10:51:37;;;;;;;7.85;5.72;;;;;;;11.97;100.00;100138.47;5041250;28;20382;-80
2023/10/24 10:54:37;;;;;;;6.90;6.25;;;;;;;11.95;100.00;100137.78;5042480;28;20402;-80
2023/10/24 10:57:03;;;;;;;8.85;6.47;;;;;;;11.90;100.00;100131.13;5050033;28;20040;-80
2023/10/24 10:59:31;;;;;;;7.43;6.65;;;;;;;11.82;100.00;100128.38;5049485;28;20028;-80
2023/10/24 11:01:59;;;;;;;8.65;6.50;;;;;;;11.78;100.00;100132.25;5051897;28;20056;-79
2023/10/24 11:04:24;;;;;;;9.98;6.78;;;;;;;11.71;100.00;100135.56;5051257;28;20025;-80
2023/10/24 11:06:55;;;;;;;8.85;6.95;;;;;;;11.66;100.00;100141.25;5046182;28;20077;-79
2023/10/24 11:09:26;;;;;;;10.68;7.32;;;;;;;11.59;100.00;100145.38;5051253;28;20102;-79
2023/10/24 11:12:27;;;;;;;8.35;7.30;;;;;;;11.60;100.00;100149.66;5040894;28;20017;-80
2023/10/24 11:15:09;;;;;;;9.02;7.75;;;;;;;11.59;100.00;100148.00;5049203;28;20041;-79
2023/10/24 11:17:37;;;;;;;9.05;7.60;;;;;;;11.60;100.00;100158.41;5049297;28;20390;-79